Hampton Bays, New York
Current Conditions -  °F | °C
As of 5:53 PM on Wednesday 22 Oct 2014 (Local Time) from KFOK Reporting Station
Light Rain Light Rain  
Wind Chill: 53°   Ceiling: 1500
Heat Index: 53°   Visibility: 9mi
Dew Point: 50°   Wind: 20mph
Humidity: 89%   Direction: 20°NNE
Pressure: 29.75"   Gusts: 35mph
Location:  40.87°N, 72.52°W
Report Text: KFOK 222153Z 02017G30KT 9SM -RA BKN015 OVC024 12/10 A2975 RMK AO2 PK WND 03030/2149 SLP074 P0010 T01170100
Loading
Personal Weather Stations






























Interactive Weather Map
Tropical Storm Tracking
New forecast layout! Learn more

10-Day Weather Forecast

Advertisements
Track Severe Weather on mobile